Terminal Aerodrome Forecast
Issued by NWS

Home | Current Version | Previous Version | Graphics & Text | Print | Product List | Glossary Off
Versions: 1 2 3 4 5 6 7 8 9 10 11 12 13

000
FTUS43 KDDC 160500
TAFHYS
TAF
KHYS 160520Z 1606/1706 17018G25KT P6SM SCT250
     FM161100 22012KT P6SM SCT250
     FM161600 34014KT P6SM SCT250
     FM170100 03010KT P6SM SCT250=

USA.gov is the U.S. government's official web portal to all federal, state and local government web resources and services.